Flight Track Log - Related Links

Times and Time Zones

All times are in EDT time to prevent confusion due to time zone crossing. See the EJA619 flight status page for this flight to view local times or setup timezone preferences in your user account.


Time Position Orientation Groundspeed Altitude Reporting Facility
EDT Latitude Longitude Course Direction KTS MPH feet Rate Location/Type
Fri 02:52:42 PM 35.1167 -89.5667 80° East 339 390 11,000  Level KMEM
Fri 02:53:00 PM 35.1121 -89.5017 80° East  Level Estimated
Fri 02:53:55 PM 35.0519 -89.4389 122° Southeast 392 451 11,000  Level Memphis Center
Fri 02:54:00 PM 35.1232 -89.4247 80° East  Level Estimated
Fri 02:54:55 PM 34.9928 -89.3381 126° Southeast 369 425 11,000  Level Memphis Center
Fri 02:55:00 PM 35.1342 -89.3476 80° East  Level Estimated
Fri 02:55:55 PM 34.9333 -89.2350 125° Southeast 369 425 11,000  Level Memphis Center
Fri 02:56:00 PM 35.1453 -89.2706 80° East  Level Estimated
Fri 02:56:55 PM 34.8886 -89.1394 120° Southeast 364 419 11,000  Level Memphis Center
Fri 02:57:00 PM 35.1592 -89.1724 80° East  Level Estimated
Fri 02:57:55 PM 34.8253 -89.0492 131° Southeast 359 413 11,000  Level Memphis Center
Fri 02:58:55 PM 34.7656 -88.9514 127° Southeast 359 413 11,000  Level Memphis Center
Fri 02:59:55 PM 34.7061 -88.8539 127° Southeast 359 413 11,000  Level Memphis Center
Fri 03:00:55 PM 34.6486 -88.7542 125° Southeast 359 413 11,000  Level Memphis Center
Fri 03:01:55 PM 34.5908 -88.6617 127° Southeast 359 413 11,000  Level Memphis Center
Fri 03:02:55 PM 34.5311 -88.5622 126° Southeast 359 413 11,000  Level Memphis Center
Fri 03:03:55 PM 34.4733 -88.4650 126° Southeast 359 413 11,000  Level Memphis Center
Fri 03:04:55 PM 34.4156 -88.3706 127° Southeast 359 413 11,000  Level Memphis Center
Fri 03:05:55 PM 34.3556 -88.2739 127° Southeast 359 413 11,000  Level Memphis Center
Fri 03:06:55 PM 34.3161 -88.1642 113° Southeast 354 407 11,000  Level Memphis Center
Fri 03:07:55 PM 34.2972 -88.0442 101° East 348 400 11,000  Level Memphis Center
Fri 03:08:55 PM 34.2761 -87.9242 102° East 353 406 11,000  Level Memphis Center
Fri 03:09:55 PM 34.2569 -87.8039 101° East 359 413 11,000  Level Memphis Center
Fri 03:11:55 PM 34.2156 -87.5631 102° East 362 417 11,000  Level Atlanta Center
Fri 03:12:55 PM 34.1919 -87.4317 102° East 362 417 11,000  Level Atlanta Center
Fri 03:13:55 PM 34.1725 -87.3103 101° East 362 417 11,000  Level Atlanta Center
Fri 03:14:55 PM 34.1506 -87.1914 103° East 362 417 11,000  Level Atlanta Center
Fri 03:15:55 PM 34.1306 -87.0728 101° East 357 411 11,000  Level Atlanta Center
Fri 03:16:55 PM 34.1083 -86.9542 103° East 357 411 11,000  Level Atlanta Center
Fri 03:17:55 PM 34.0881 -86.8331 101° East 357 411 11,000  Level Atlanta Center
Fri 03:18:55 PM 34.0658 -86.7144 103° East 357 411 11,000  Level Atlanta Center
Fri 03:19:55 PM 34.0453 -86.5933 102° East 357 411 11,000  Level Atlanta Center
Fri 03:20:55 PM 34.0228 -86.4775 103° East 357 411 11,000  Level Atlanta Center
Fri 03:21:55 PM 34.0000 -86.3567 103° East 357 411 11,000  Level Atlanta Center
Fri 03:22:55 PM 34.0128 -86.2342 83° East 357 411 11,000  Level Atlanta Center
Fri 03:23:55 PM 34.0294 -86.1142 80° East 357 411 11,000  Level Atlanta Center
Fri 03:24:55 PM 34.0481 -85.9919 80° East 363 418 11,000  Level Atlanta Center
Fri 03:25:55 PM 34.0603 -85.8692 83° East 363 418 11,000  Level Atlanta Center
Fri 03:26:55 PM 34.0764 -85.7617 80° East 368 423 11,000  Level Atlanta Center
Fri 03:27:55 PM 34.0928 -85.6392 81° East 368 423 11,000  Level Atlanta Center
Fri 03:28:55 PM 34.1089 -85.5192 81° East 368 423 11,000  Level Atlanta Center
Fri 03:29:55 PM 34.1208 -85.3964 83° East 368 423 11,000  Level Atlanta Center
Fri 03:30:55 PM 34.1408 -85.2611 80° East 368 423 11,000  Level Atlanta Center
Fri 03:31:55 PM 34.1692 -85.1436 74° East 363 418 11,000  Level Atlanta Center
Fri 03:32:55 PM 34.2203 -85.0361 60° Northeast 363 418 11,000  Level Atlanta Center
Fri 03:33:55 PM 34.2711 -84.9261 61° Northeast 363 418 11,000  Level Atlanta Center
Fri 03:34:55 PM 34.3197 -84.8186 61° Northeast 363 418 11,000  Level Atlanta Center
Fri 03:35:55 PM 34.3706 -84.7083 61° Northeast 368 423 11,000  Level Atlanta Center
Fri 03:36:55 PM 34.4128 -84.6103 62° Northeast 368 423 11,000  Level Atlanta Center
Fri 03:37:55 PM 34.4633 -84.4997 61° Northeast 368 423 11,000  Level Atlanta Center
Fri 03:38:55 PM 34.5075 -84.3892 64° Northeast 368 423 11,000  Level Atlanta Center
Fri 03:39:55 PM 34.5328 -84.2683 76° East 368 423 11,000  Level Atlanta Center
Fri 03:40:55 PM 34.5622 -84.1472 74° East 368 423 11,000  Level Atlanta Center
Fri 03:41:55 PM 34.5872 -84.0136 77° East 368 423 11,000  Level Atlanta Center
Fri 03:42:55 PM 34.6164 -83.8925 74° East 368 423 11,000  Level Atlanta Center
Fri 03:43:55 PM 34.6414 -83.7686 76° East 368 423 11,000 -50 Level Atlanta Center
Fri 03:44:55 PM 34.6681 -83.6497 75° East 363 418 10,900 -50 Descending Atlanta Center
Fri 03:45:55 PM 34.6906 -83.5386 76° East 360 414 10,900  Level Atlanta Center
Fri 03:46:55 PM 34.7194 -83.4222 73° East 360 414 10,900  Level Atlanta Center
Fri 03:47:55 PM 34.7436 -83.3031 76° East 353 406 10,900  Level Atlanta Center
Fri 03:48:55 PM 34.7719 -83.1664 76° East 364 419 10,900  Level Atlanta Center
Fri 03:49:55 PM 34.7961 -83.0447 76° East 369 425 10,900  Level Atlanta Center
Fri 03:50:55 PM 34.8181 -82.9356 76° East 374 430 10,900  Level Atlanta Center
Fri 03:51:55 PM 34.8483 -82.8214 72° East 369 425 10,900  Level Atlanta Center
Fri 03:52:55 PM 34.8742 -82.6969 76° East 369 425 10,900  Level Atlanta Center
Fri 03:53:55 PM 34.9000 -82.5700 76° East 369 425 10,900  Level Atlanta Center
Fri 03:54:55 PM 34.9256 -82.4503 75° East 369 425 10,900  Level Atlanta Center
Fri 03:55:55 PM 34.9511 -82.3283 76° East 369 425 10,900  Level Atlanta Center
Fri 03:56:55 PM 34.9786 -82.2061 75° East 374 430 10,900  Level Atlanta Center
Fri 03:57:55 PM 35.0458 -82.1031 51° Northeast 360 414 10,900  Level Atlanta Center
Fri 03:58:55 PM 35.1456 -82.0753 13° North 339 390 10,900  Level Atlanta Center
Fri 03:59:55 PM 35.2411 -82.0475 13° North 344 396 10,900  Level Atlanta Center
Fri 04:00:55 PM 35.3406 -82.0172 14° North 358 412 10,900  Level Atlanta Center
Fri 04:01:55 PM 35.4383 -81.9867 14° North 358 412 10,900  Level Atlanta Center
Fri 04:02:55 PM 35.5358 -81.9589 13° North 358 412 10,900  Level Atlanta Center
Fri 04:03:55 PM 35.6311 -81.9231 17° North 358 412 10,900 50 Level Atlanta Center
Fri 04:04:55 PM 35.6861 -81.8400 51° Northeast 355 409 11,000 50 Climbing Atlanta Center
Fri 04:05:55 PM 35.7319 -81.7236 64° Northeast 355 409 11,000  Level Atlanta Center
Fri 04:06:55 PM 35.7775 -81.6044 65° Northeast 366 421 11,000  Level Atlanta Center
Fri 04:07:55 PM 35.8211 -81.4931 64° Northeast 366 421 11,000  Level Atlanta Center
Fri 04:08:55 PM 35.8706 -81.3658 64° Northeast 366 421 11,000  Level Atlanta Center
Fri 04:09:55 PM 35.9181 -81.2517 63° Northeast 366 421 11,000  Level Atlanta Center
Fri 04:10:55 PM 35.9614 -81.1347 65° Northeast 366 421 11,000  Level Atlanta Center
Fri 04:11:55 PM 36.0067 -81.0203 64° Northeast 366 421 11,000  Level Atlanta Center
Fri 04:12:55 PM 36.0517 -80.9056 64° Northeast 366 421 11,000  Level Atlanta Center
Fri 04:13:55 PM 36.0944 -80.7908 65° Northeast 366 421 11,000  Level Atlanta Center
Fri 04:14:55 PM 36.1289 -80.6761 70° East 361 415 11,000  Level Atlanta Center
Fri 04:15:55 PM 36.1175 -80.5661 97° East 335 386 11,000  Level Atlanta Center
Fri 04:16:55 PM 36.0914 -80.4567 106° East 330 380 11,000 -950 Level Atlanta Center
Fri 04:17:55 PM 36.0675 -80.3525 106° East 324 373 9,100 -1,900 Descending Atlanta Center
Fri 04:18:55 PM 36.0417 -80.2561 108° East 307 353 7,200 -2,050 Descending Atlanta Center
Fri 04:19:55 PM 36.0203 -80.1700 107° East 292 336 5,000 -2,050 Descending Atlanta Center
Fri 04:20:55 PM 36.0092 -80.0856 99° East 271 312 3,100 -1,100 Descending Atlanta Center
Fri 04:21:55 PM 36.0300 -80.0153 70° East 228 262 2,800 -650 Descending Atlanta Center
Fri 04:22:55 PM 36.0619 -79.9778 43° Northeast 161 185 1,800 -1,000 Descending Atlanta Center
Fri 04:24:00 PM 36.1000 -79.9333 15° North  Level FlightAware Approximate
Fri 04:31:00 PM 36.1013 -79.9411 15° North  Level Estimated
Fri 04:32:00 PM 36.1000 -79.9333 15° North  Level FlightAware Approximate

Login

Don't have an account? Register now (free) for customized features, flight alerts, and more!